sensor_id;sensor_type;location;lat;lon;timestamp;temperature;humidity
21115;DHT22;10715;48.546;9.896;2023-09-12T00:01:00;14.80;99.90
21115;DHT22;10715;48.546;9.896;2023-09-12T00:03:30;14.80;99.90
21115;DHT22;10715;48.546;9.896;2023-09-12T00:05:58;14.70;99.90
21115;DHT22;10715;48.546;9.896;2023-09-12T00:08:24;14.70;99.90
21115;DHT22;10715;48.546;9.896;2023-09-12T00:11:04;14.70;99.90
21115;DHT22;10715;48.546;9.896;2023-09-12T00:13:31;14.60;99.90
21115;DHT22;10715;48.546;9.896;2023-09-12T00:15:57;14.60;99.90
21115;DHT22;10715;48.546;9.896;2023-09-12T00:18:23;14.60;99.90
21115;DHT22;10715;48.546;9.896;2023-09-12T00:20:50;14.60;99.90
21115;DHT22;10715;48.546;9.896;2023-09-12T00:23:16;14.60;99.90
21115;DHT22;10715;48.546;9.896;2023-09-12T00:25:42;14.50;99.90
21115;DHT22;10715;48.546;9.896;2023-09-12T00:28:08;14.50;99.90
21115;DHT22;10715;48.546;9.896;2023-09-12T00:30:33;14.50;99.90
21115;DHT22;10715;48.546;9.896;2023-09-12T00:32:59;14.40;99.90
21115;DHT22;10715;48.546;9.896;2023-09-12T00:35:25;14.40;99.90
21115;DHT22;10715;48.546;9.896;2023-09-12T00:37:50;14.30;99.90
21115;DHT22;10715;48.546;9.896;2023-09-12T00:40:16;14.30;99.90
21115;DHT22;10715;48.546;9.896;2023-09-12T00:42:42;14.30;99.90
21115;DHT22;10715;48.546;9.896;2023-09-12T00:45:07;14.30;99.90
21115;DHT22;10715;48.546;9.896;2023-09-12T00:47:33;14.30;99.90
21115;DHT22;10715;48.546;9.896;2023-09-12T00:50:00;14.30;99.90
21115;DHT22;10715;48.546;9.896;2023-09-12T00:52:28;14.20;99.90
21115;DHT22;10715;48.546;9.896;2023-09-12T00:54:55;14.20;99.90
21115;DHT22;10715;48.546;9.896;2023-09-12T00:57:24;14.20;99.90
21115;DHT22;10715;48.546;9.896;2023-09-12T00:59:51;14.20;99.90
21115;DHT22;10715;48.546;9.896;2023-09-12T01:02:19;14.20;99.90
21115;DHT22;10715;48.546;9.896;2023-09-12T01:04:45;14.10;99.90
21115;DHT22;10715;48.546;9.896;2023-09-12T01:07:11;14.10;99.90
21115;DHT22;10715;48.546;9.896;2023-09-12T01:09:36;14.10;99.90
21115;DHT22;10715;48.546;9.896;2023-09-12T01:12:02;14.10;99.90
21115;DHT22;10715;48.546;9.896;2023-09-12T01:14:29;14.10;99.90
21115;DHT22;10715;48.546;9.896;2023-09-12T01:16:56;14.10;99.90
21115;DHT22;10715;48.546;9.896;2023-09-12T01:19:22;14.10;99.90
21115;DHT22;10715;48.546;9.896;2023-09-12T01:27:30;14.00;99.90
21115;DHT22;10715;48.546;9.896;2023-09-12T01:29:58;13.90;99.90
21115;DHT22;10715;48.546;9.896;2023-09-12T01:32:26;13.90;99.90
21115;DHT22;10715;48.546;9.896;2023-09-12T01:34:52;13.90;99.90
21115;DHT22;10715;48.546;9.896;2023-09-12T01:37:18;13.80;99.90
21115;DHT22;10715;48.546;9.896;2023-09-12T01:39:43;13.80;99.90
21115;DHT22;10715;48.546;9.896;2023-09-12T01:42:15;13.80;99.90
21115;DHT22;10715;48.546;9.896;2023-09-12T01:44:47;13.80;99.90
21115;DHT22;10715;48.546;9.896;2023-09-12T01:47:16;13.70;99.90
21115;DHT22;10715;48.546;9.896;2023-09-12T01:49:45;13.70;99.90
21115;DHT22;10715;48.546;9.896;2023-09-12T01:52:12;13.70;99.90
21115;DHT22;10715;48.546;9.896;2023-09-12T01:54:38;13.70;99.90
21115;DHT22;10715;48.546;9.896;2023-09-12T01:57:05;13.60;99.90
21115;DHT22;10715;48.546;9.896;2023-09-12T01:59:31;13.60;99.90
21115;DHT22;10715;48.546;9.896;2023-09-12T02:01:57;13.60;99.90
21115;DHT22;10715;48.546;9.896;2023-09-12T02:04:23;13.60;99.90
21115;DHT22;10715;48.546;9.896;2023-09-12T02:06:48;13.50;99.90
21115;DHT22;10715;48.546;9.896;2023-09-12T02:09:14;13.50;99.90
21115;DHT22;10715;48.546;9.896;2023-09-12T02:11:40;13.50;99.90
21115;DHT22;10715;48.546;9.896;2023-09-12T02:14:05;13.50;99.90
21115;DHT22;10715;48.546;9.896;2023-09-12T02:16:37;13.40;99.90
21115;DHT22;10715;48.546;9.896;2023-09-12T02:19:04;13.40;99.90
21115;DHT22;10715;48.546;9.896;2023-09-12T02:21:30;13.40;99.90
21115;DHT22;10715;48.546;9.896;2023-09-12T02:23:55;13.30;99.90
21115;DHT22;10715;48.546;9.896;2023-09-12T02:26:21;13.30;99.90
21115;DHT22;10715;48.546;9.896;2023-09-12T02:28:47;13.30;99.90
21115;DHT22;10715;48.546;9.896;2023-09-12T02:31:12;13.30;99.90
21115;DHT22;10715;48.546;9.896;2023-09-12T02:33:39;13.30;99.90
21115;DHT22;10715;48.546;9.896;2023-09-12T02:36:05;13.30;99.90
21115;DHT22;10715;48.546;9.896;2023-09-12T02:38:31;13.20;99.90
21115;DHT22;10715;48.546;9.896;2023-09-12T02:40:58;13.20;99.90
21115;DHT22;10715;48.546;9.896;2023-09-12T02:43:24;13.20;99.90
21115;DHT22;10715;48.546;9.896;2023-09-12T02:45:49;13.10;99.90
21115;DHT22;10715;48.546;9.896;2023-09-12T02:48:15;13.10;99.90
21115;DHT22;10715;48.546;9.896;2023-09-12T02:50:41;13.10;99.90
21115;DHT22;10715;48.546;9.896;2023-09-12T02:53:06;13.10;99.90
21115;DHT22;10715;48.546;9.896;2023-09-12T02:55:32;13.10;99.90
21115;DHT22;10715;48.546;9.896;2023-09-12T02:57:58;13.00;99.90
21115;DHT22;10715;48.546;9.896;2023-09-12T03:00:24;13.00;99.90
21115;DHT22;10715;48.546;9.896;2023-09-12T03:02:50;13.00;99.90
21115;DHT22;10715;48.546;9.896;2023-09-12T03:05:16;13.00;99.90
21115;DHT22;10715;48.546;9.896;2023-09-12T03:07:41;13.00;99.90
21115;DHT22;10715;48.546;9.896;2023-09-12T03:10:08;13.00;99.90
21115;DHT22;10715;48.546;9.896;2023-09-12T03:12:35;13.00;99.90
21115;DHT22;10715;48.546;9.896;2023-09-12T03:15:02;13.00;99.90
21115;DHT22;10715;48.546;9.896;2023-09-12T03:17:28;12.90;99.90
21115;DHT22;10715;48.546;9.896;2023-09-12T03:19:54;12.90;99.90
21115;DHT22;10715;48.546;9.896;2023-09-12T03:22:20;12.90;99.90
21115;DHT22;10715;48.546;9.896;2023-09-12T03:24:45;12.90;99.90
21115;DHT22;10715;48.546;9.896;2023-09-12T03:27:11;12.90;99.90
21115;DHT22;10715;48.546;9.896;2023-09-12T03:29:37;12.80;99.90
21115;DHT22;10715;48.546;9.896;2023-09-12T03:32:03;12.80;99.90
21115;DHT22;10715;48.546;9.896;2023-09-12T03:34:29;12.80;99.90
21115;DHT22;10715;48.546;9.896;2023-09-12T03:36:54;12.80;99.90
21115;DHT22;10715;48.546;9.896;2023-09-12T03:39:20;12.80;99.90
21115;DHT22;10715;48.546;9.896;2023-09-12T03:41:46;12.70;99.90
21115;DHT22;10715;48.546;9.896;2023-09-12T03:44:11;12.70;99.90
21115;DHT22;10715;48.546;9.896;2023-09-12T03:46:37;12.70;99.90
21115;DHT22;10715;48.546;9.896;2023-09-12T03:49:03;12.70;99.90
21115;DHT22;10715;48.546;9.896;2023-09-12T03:51:28;12.70;99.90
21115;DHT22;10715;48.546;9.896;2023-09-12T03:53:54;12.70;99.90
21115;DHT22;10715;48.546;9.896;2023-09-12T03:56:20;12.70;99.90
21115;DHT22;10715;48.546;9.896;2023-09-12T03:58:46;12.70;99.90
21115;DHT22;10715;48.546;9.896;2023-09-12T04:01:12;12.60;99.90
21115;DHT22;10715;48.546;9.896;2023-09-12T04:03:38;12.70;99.90
21115;DHT22;10715;48.546;9.896;2023-09-12T04:06:04;12.60;99.90
21115;DHT22;10715;48.546;9.896;2023-09-12T04:08:29;12.60;99.90
21115;DHT22;10715;48.546;9.896;2023-09-12T04:10:55;12.60;99.90
21115;DHT22;10715;48.546;9.896;2023-09-12T04:13:21;12.60;99.90
21115;DHT22;10715;48.546;9.896;2023-09-12T04:15:46;12.50;99.90
21115;DHT22;10715;48.546;9.896;2023-09-12T04:18:13;12.50;99.90
21115;DHT22;10715;48.546;9.896;2023-09-12T04:20:38;12.50;99.90
21115;DHT22;10715;48.546;9.896;2023-09-12T04:23:04;12.50;99.90
21115;DHT22;10715;48.546;9.896;2023-09-12T04:25:30;12.50;99.90
21115;DHT22;10715;48.546;9.896;2023-09-12T04:27:56;12.50;99.90
21115;DHT22;10715;48.546;9.896;2023-09-12T04:30:22;12.40;99.90
21115;DHT22;10715;48.546;9.896;2023-09-12T04:32:48;12.40;99.90
21115;DHT22;10715;48.546;9.896;2023-09-12T04:35:13;12.40;99.90
21115;DHT22;10715;48.546;9.896;2023-09-12T04:37:39;12.40;99.90
21115;DHT22;10715;48.546;9.896;2023-09-12T04:40:07;12.40;99.90
21115;DHT22;10715;48.546;9.896;2023-09-12T04:42:33;12.40;99.90
21115;DHT22;10715;48.546;9.896;2023-09-12T04:44:58;12.30;99.90
21115;DHT22;10715;48.546;9.896;2023-09-12T04:47:24;12.30;99.90
21115;DHT22;10715;48.546;9.896;2023-09-12T04:49:50;12.30;99.90
21115;DHT22;10715;48.546;9.896;2023-09-12T04:52:16;12.30;99.90
21115;DHT22;10715;48.546;9.896;2023-09-12T04:54:41;12.30;99.90
21115;DHT22;10715;48.546;9.896;2023-09-12T04:57:08;12.30;99.90
21115;DHT22;10715;48.546;9.896;2023-09-12T04:59:33;12.30;99.90
21115;DHT22;10715;48.546;9.896;2023-09-12T05:01:59;12.30;99.90
21115;DHT22;10715;48.546;9.896;2023-09-12T05:04:25;12.20;99.90
21115;DHT22;10715;48.546;9.896;2023-09-12T05:06:51;12.20;99.90
21115;DHT22;10715;48.546;9.896;2023-09-12T05:09:16;12.20;99.90
21115;DHT22;10715;48.546;9.896;2023-09-12T05:11:42;12.20;99.90
21115;DHT22;10715;48.546;9.896;2023-09-12T05:14:09;12.20;99.90
21115;DHT22;10715;48.546;9.896;2023-09-12T05:16:34;12.20;99.90
21115;DHT22;10715;48.546;9.896;2023-09-12T05:19:00;12.20;99.90
21115;DHT22;10715;48.546;9.896;2023-09-12T05:21:26;12.20;99.90
21115;DHT22;10715;48.546;9.896;2023-09-12T05:23:51;12.20;99.90
21115;DHT22;10715;48.546;9.896;2023-09-12T05:26:17;12.20;99.90
21115;DHT22;10715;48.546;9.896;2023-09-12T05:28:44;12.20;99.90
21115;DHT22;10715;48.546;9.896;2023-09-12T05:31:20;12.20;99.90
21115;DHT22;10715;48.546;9.896;2023-09-12T05:33:46;12.30;99.90
21115;DHT22;10715;48.546;9.896;2023-09-12T05:36:12;12.30;99.90
21115;DHT22;10715;48.546;9.896;2023-09-12T05:38:38;12.30;99.90
21115;DHT22;10715;48.546;9.896;2023-09-12T05:41:03;12.30;99.90
21115;DHT22;10715;48.546;9.896;2023-09-12T05:43:29;12.40;99.90
21115;DHT22;10715;48.546;9.896;2023-09-12T05:45:56;12.40;99.90
21115;DHT22;10715;48.546;9.896;2023-09-12T05:48:23;12.40;99.90
21115;DHT22;10715;48.546;9.896;2023-09-12T05:50:49;12.50;99.90
21115;DHT22;10715;48.546;9.896;2023-09-12T05:53:14;12.50;99.90
21115;DHT22;10715;48.546;9.896;2023-09-12T05:55:40;12.50;99.90
21115;DHT22;10715;48.546;9.896;2023-09-12T05:58:06;12.60;99.90
21115;DHT22;10715;48.546;9.896;2023-09-12T06:00:32;12.70;99.90
21115;DHT22;10715;48.546;9.896;2023-09-12T06:02:58;12.80;99.90
21115;DHT22;10715;48.546;9.896;2023-09-12T06:05:24;12.90;99.90
21115;DHT22;10715;48.546;9.896;2023-09-12T06:07:50;12.90;99.90
21115;DHT22;10715;48.546;9.896;2023-09-12T06:10:16;13.00;99.90
21115;DHT22;10715;48.546;9.896;2023-09-12T06:12:41;13.10;99.90
21115;DHT22;10715;48.546;9.896;2023-09-12T06:15:07;13.10;99.90
21115;DHT22;10715;48.546;9.896;2023-09-12T06:17:33;13.20;99.90
21115;DHT22;10715;48.546;9.896;2023-09-12T06:19:59;13.20;99.90
21115;DHT22;10715;48.546;9.896;2023-09-12T06:22:25;13.30;99.90
21115;DHT22;10715;48.546;9.896;2023-09-12T06:24:51;13.40;99.90
21115;DHT22;10715;48.546;9.896;2023-09-12T06:27:17;13.40;99.90
21115;DHT22;10715;48.546;9.896;2023-09-12T06:29:45;13.50;99.90
21115;DHT22;10715;48.546;9.896;2023-09-12T06:32:12;13.60;99.90
21115;DHT22;10715;48.546;9.896;2023-09-12T06:34:38;13.60;99.90
21115;DHT22;10715;48.546;9.896;2023-09-12T06:37:04;13.70;99.90
21115;DHT22;10715;48.546;9.896;2023-09-12T06:39:29;13.80;99.90
21115;DHT22;10715;48.546;9.896;2023-09-12T06:41:55;13.90;99.90
21115;DHT22;10715;48.546;9.896;2023-09-12T06:44:21;14.00;99.90
21115;DHT22;10715;48.546;9.896;2023-09-12T06:46:47;14.10;99.90
21115;DHT22;10715;48.546;9.896;2023-09-12T06:49:12;14.20;99.90
21115;DHT22;10715;48.546;9.896;2023-09-12T06:51:38;14.40;99.90
21115;DHT22;10715;48.546;9.896;2023-09-12T06:54:04;14.40;99.90
21115;DHT22;10715;48.546;9.896;2023-09-12T06:56:29;14.50;99.90
21115;DHT22;10715;48.546;9.896;2023-09-12T06:58:55;14.60;99.90
21115;DHT22;10715;48.546;9.896;2023-09-12T07:01:21;14.70;99.90
21115;DHT22;10715;48.546;9.896;2023-09-12T07:03:47;14.80;99.90
21115;DHT22;10715;48.546;9.896;2023-09-12T07:06:12;14.90;99.90
21115;DHT22;10715;48.546;9.896;2023-09-12T07:08:39;15.00;99.90
21115;DHT22;10715;48.546;9.896;2023-09-12T07:11:05;15.10;99.90
21115;DHT22;10715;48.546;9.896;2023-09-12T07:13:32;15.20;99.90
21115;DHT22;10715;48.546;9.896;2023-09-12T07:15:58;15.40;99.90
21115;DHT22;10715;48.546;9.896;2023-09-12T07:18:24;15.50;99.90
21115;DHT22;10715;48.546;9.896;2023-09-12T07:21:04;15.50;99.90
21115;DHT22;10715;48.546;9.896;2023-09-12T07:23:30;15.60;99.90
21115;DHT22;10715;48.546;9.896;2023-09-12T07:25:56;15.70;99.90
21115;DHT22;10715;48.546;9.896;2023-09-12T07:28:26;15.90;99.90
21115;DHT22;10715;48.546;9.896;2023-09-12T07:30:53;16.00;99.90
21115;DHT22;10715;48.546;9.896;2023-09-12T07:33:19;16.10;99.90
21115;DHT22;10715;48.546;9.896;2023-09-12T07:35:45;16.30;99.90
21115;DHT22;10715;48.546;9.896;2023-09-12T07:38:12;16.40;99.90
21115;DHT22;10715;48.546;9.896;2023-09-12T07:40:41;16.50;99.90
21115;DHT22;10715;48.546;9.896;2023-09-12T07:43:07;16.70;99.90
21115;DHT22;10715;48.546;9.896;2023-09-12T07:45:32;16.80;99.90
21115;DHT22;10715;48.546;9.896;2023-09-12T07:48:09;16.90;99.90
21115;DHT22;10715;48.546;9.896;2023-09-12T07:50:36;17.00;99.90
21115;DHT22;10715;48.546;9.896;2023-09-12T07:53:04;17.10;99.90
21115;DHT22;10715;48.546;9.896;2023-09-12T07:55:31;17.20;99.90
21115;DHT22;10715;48.546;9.896;2023-09-12T07:58:02;17.40;99.90
21115;DHT22;10715;48.546;9.896;2023-09-12T08:00:28;17.50;99.90
21115;DHT22;10715;48.546;9.896;2023-09-12T08:02:53;17.70;99.90
21115;DHT22;10715;48.546;9.896;2023-09-12T08:05:19;17.80;99.90
21115;DHT22;10715;48.546;9.896;2023-09-12T08:07:45;17.90;99.90
21115;DHT22;10715;48.546;9.896;2023-09-12T08:10:10;18.10;99.90
21115;DHT22;10715;48.546;9.896;2023-09-12T08:12:36;18.20;99.90
21115;DHT22;10715;48.546;9.896;2023-09-12T08:15:04;18.40;99.90
21115;DHT22;10715;48.546;9.896;2023-09-12T08:17:30;18.50;99.90
21115;DHT22;10715;48.546;9.896;2023-09-12T08:19:56;18.60;99.90
21115;DHT22;10715;48.546;9.896;2023-09-12T08:22:22;18.80;99.90
21115;DHT22;10715;48.546;9.896;2023-09-12T08:24:47;18.90;99.90
21115;DHT22;10715;48.546;9.896;2023-09-12T08:27:13;19.10;99.90
21115;DHT22;10715;48.546;9.896;2023-09-12T08:29:39;19.20;99.90
21115;DHT22;10715;48.546;9.896;2023-09-12T08:32:07;19.40;99.90
21115;DHT22;10715;48.546;9.896;2023-09-12T08:34:33;19.50;99.90
21115;DHT22;10715;48.546;9.896;2023-09-12T08:36:59;19.70;99.90
21115;DHT22;10715;48.546;9.896;2023-09-12T08:39:26;19.90;99.90
21115;DHT22;10715;48.546;9.896;2023-09-12T08:41:53;20.00;99.90
21115;DHT22;10715;48.546;9.896;2023-09-12T08:44:20;20.20;99.90
21115;DHT22;10715;48.546;9.896;2023-09-12T08:46:46;20.30;99.90
21115;DHT22;10715;48.546;9.896;2023-09-12T08:49:12;20.50;99.90
21115;DHT22;10715;48.546;9.896;2023-09-12T08:51:39;20.60;99.90
21115;DHT22;10715;48.546;9.896;2023-09-12T08:54:08;20.70;99.90
21115;DHT22;10715;48.546;9.896;2023-09-12T08:56:40;20.90;99.90
21115;DHT22;10715;48.546;9.896;2023-09-12T08:59:07;21.00;99.90
21115;DHT22;10715;48.546;9.896;2023-09-12T09:01:33;21.20;99.90
21115;DHT22;10715;48.546;9.896;2023-09-12T09:04:01;21.30;99.90
21115;DHT22;10715;48.546;9.896;2023-09-12T09:06:30;21.40;99.90
21115;DHT22;10715;48.546;9.896;2023-09-12T09:08:58;21.50;99.90
21115;DHT22;10715;48.546;9.896;2023-09-12T09:11:25;21.60;99.90
21115;DHT22;10715;48.546;9.896;2023-09-12T09:13:53;21.70;99.90
21115;DHT22;10715;48.546;9.896;2023-09-12T09:16:19;21.80;99.90
21115;DHT22;10715;48.546;9.896;2023-09-12T09:19:03;21.90;99.90
21115;DHT22;10715;48.546;9.896;2023-09-12T09:21:36;22.00;99.90
21115;DHT22;10715;48.546;9.896;2023-09-12T09:24:09;22.10;99.90
21115;DHT22;10715;48.546;9.896;2023-09-12T09:26:47;22.20;99.90
21115;DHT22;10715;48.546;9.896;2023-09-12T09:29:18;22.30;99.90
21115;DHT22;10715;48.546;9.896;2023-09-12T09:31:47;22.40;99.90
21115;DHT22;10715;48.546;9.896;2023-09-12T09:34:17;22.50;99.90
21115;DHT22;10715;48.546;9.896;2023-09-12T09:36:47;22.60;99.90
21115;DHT22;10715;48.546;9.896;2023-09-12T09:39:14;22.60;99.90
21115;DHT22;10715;48.546;9.896;2023-09-12T09:41:39;22.80;99.90
21115;DHT22;10715;48.546;9.896;2023-09-12T09:44:07;22.90;99.90
21115;DHT22;10715;48.546;9.896;2023-09-12T09:46:34;23.00;99.90
21115;DHT22;10715;48.546;9.896;2023-09-12T09:49:00;23.10;99.90
21115;DHT22;10715;48.546;9.896;2023-09-12T09:51:26;23.30;99.90
21115;DHT22;10715;48.546;9.896;2023-09-12T09:53:53;23.40;99.90
21115;DHT22;10715;48.546;9.896;2023-09-12T09:56:23;23.50;99.90
21115;DHT22;10715;48.546;9.896;2023-09-12T09:58:56;23.60;99.90
21115;DHT22;10715;48.546;9.896;2023-09-12T10:01:31;23.70;99.90
21115;DHT22;10715;48.546;9.896;2023-09-12T10:04:01;23.80;99.90
21115;DHT22;10715;48.546;9.896;2023-09-12T10:06:27;23.90;99.90
21115;DHT22;10715;48.546;9.896;2023-09-12T10:08:55;24.00;99.90
21115;DHT22;10715;48.546;9.896;2023-09-12T10:11:23;24.00;99.90
21115;DHT22;10715;48.546;9.896;2023-09-12T10:13:53;24.10;99.90
21115;DHT22;10715;48.546;9.896;2023-09-12T10:16:22;24.30;99.90
21115;DHT22;10715;48.546;9.896;2023-09-12T10:19:16;24.40;99.90
21115;DHT22;10715;48.546;9.896;2023-09-12T10:21:49;24.50;99.90
21115;DHT22;10715;48.546;9.896;2023-09-12T10:24:16;24.60;99.90
21115;DHT22;10715;48.546;9.896;2023-09-12T10:26:45;24.70;99.90
21115;DHT22;10715;48.546;9.896;2023-09-12T10:29:15;24.80;99.90
21115;DHT22;10715;48.546;9.896;2023-09-12T10:31:41;24.80;99.90
21115;DHT22;10715;48.546;9.896;2023-09-12T10:34:12;24.90;99.90
21115;DHT22;10715;48.546;9.896;2023-09-12T10:36:40;24.90;99.90
21115;DHT22;10715;48.546;9.896;2023-09-12T10:39:07;25.00;99.90
21115;DHT22;10715;48.546;9.896;2023-09-12T10:41:37;25.10;99.90
21115;DHT22;10715;48.546;9.896;2023-09-12T10:44:14;25.10;99.90
21115;DHT22;10715;48.546;9.896;2023-09-12T10:46:41;25.10;99.90
21115;DHT22;10715;48.546;9.896;2023-09-12T10:49:10;25.20;99.90
21115;DHT22;10715;48.546;9.896;2023-09-12T10:51:44;25.20;99.90
21115;DHT22;10715;48.546;9.896;2023-09-12T10:54:45;25.20;99.90
21115;DHT22;10715;48.546;9.896;2023-09-12T10:57:11;25.40;99.90
21115;DHT22;10715;48.546;9.896;2023-09-12T11:02:38;25.50;99.90
21115;DHT22;10715;48.546;9.896;2023-09-12T11:07:57;25.70;99.90
21115;DHT22;10715;48.546;9.896;2023-09-12T11:10:24;25.70;99.90
21115;DHT22;10715;48.546;9.896;2023-09-12T11:12:52;25.80;99.90
21115;DHT22;10715;48.546;9.896;2023-09-12T11:15:22;25.90;99.90
21115;DHT22;10715;48.546;9.896;2023-09-12T11:17:50;25.90;99.90
21115;DHT22;10715;48.546;9.896;2023-09-12T11:20:25;26.00;99.90
21115;DHT22;10715;48.546;9.896;2023-09-12T11:22:51;26.10;99.90
21115;DHT22;10715;48.546;9.896;2023-09-12T11:27:45;26.20;99.90
21115;DHT22;10715;48.546;9.896;2023-09-12T11:30:26;26.20;99.90
21115;DHT22;10715;48.546;9.896;2023-09-12T11:32:56;26.30;99.90
21115;DHT22;10715;48.546;9.896;2023-09-12T11:35:24;26.30;99.90
21115;DHT22;10715;48.546;9.896;2023-09-12T11:37:55;26.40;99.90
21115;DHT22;10715;48.546;9.896;2023-09-12T11:40:41;26.50;99.90
21115;DHT22;10715;48.546;9.896;2023-09-12T11:43:08;26.50;99.90
21115;DHT22;10715;48.546;9.896;2023-09-12T11:45:44;26.50;99.90
21115;DHT22;10715;48.546;9.896;2023-09-12T11:48:09;26.60;99.90
21115;DHT22;10715;48.546;9.896;2023-09-12T11:50:36;26.60;99.90
21115;DHT22;10715;48.546;9.896;2023-09-12T11:53:06;26.60;99.90
21115;DHT22;10715;48.546;9.896;2023-09-12T11:55:44;26.60;99.90
21115;DHT22;10715;48.546;9.896;2023-09-12T11:58:15;26.70;99.90
21115;DHT22;10715;48.546;9.896;2023-09-12T12:00:52;26.70;99.90
21115;DHT22;10715;48.546;9.896;2023-09-12T12:03:23;26.70;99.90
21115;DHT22;10715;48.546;9.896;2023-09-12T12:05:50;26.70;99.90
21115;DHT22;10715;48.546;9.896;2023-09-12T12:08:17;26.80;99.90
21115;DHT22;10715;48.546;9.896;2023-09-12T12:10:43;26.80;99.90
21115;DHT22;10715;48.546;9.896;2023-09-12T12:13:16;26.80;99.90
21115;DHT22;10715;48.546;9.896;2023-09-12T12:15:42;26.80;99.90
21115;DHT22;10715;48.546;9.896;2023-09-12T12:18:08;26.80;99.90
21115;DHT22;10715;48.546;9.896;2023-09-12T12:20:34;26.80;99.90
21115;DHT22;10715;48.546;9.896;2023-09-12T12:23:00;26.80;99.90
21115;DHT22;10715;48.546;9.896;2023-09-12T12:25:25;26.90;99.90
21115;DHT22;10715;48.546;9.896;2023-09-12T12:27:51;26.90;99.90
21115;DHT22;10715;48.546;9.896;2023-09-12T12:30:18;26.90;99.90
21115;DHT22;10715;48.546;9.896;2023-09-12T12:32:46;26.90;99.90
21115;DHT22;10715;48.546;9.896;2023-09-12T12:35:23;27.00;99.90
21115;DHT22;10715;48.546;9.896;2023-09-12T12:37:50;27.00;99.90
21115;DHT22;10715;48.546;9.896;2023-09-12T12:40:17;27.00;99.90
21115;DHT22;10715;48.546;9.896;2023-09-12T12:42:44;27.00;99.90
21115;DHT22;10715;48.546;9.896;2023-09-12T12:45:16;27.10;99.90
21115;DHT22;10715;48.546;9.896;2023-09-12T12:47:43;27.10;99.90
21115;DHT22;10715;48.546;9.896;2023-09-12T12:50:17;27.10;99.90
21115;DHT22;10715;48.546;9.896;2023-09-12T12:52:46;27.10;99.90
21115;DHT22;10715;48.546;9.896;2023-09-12T12:55:13;27.10;99.90
21115;DHT22;10715;48.546;9.896;2023-09-12T12:57:40;27.10;99.90
21115;DHT22;10715;48.546;9.896;2023-09-12T13:00:13;27.10;99.90
21115;DHT22;10715;48.546;9.896;2023-09-12T13:02:40;27.10;99.90
21115;DHT22;10715;48.546;9.896;2023-09-12T13:07:45;27.20;99.90
21115;DHT22;10715;48.546;9.896;2023-09-12T13:10:11;27.30;99.90
21115;DHT22;10715;48.546;9.896;2023-09-12T13:12:36;27.30;99.90
21115;DHT22;10715;48.546;9.896;2023-09-12T13:15:04;27.30;99.90
21115;DHT22;10715;48.546;9.896;2023-09-12T13:17:30;27.30;99.90
21115;DHT22;10715;48.546;9.896;2023-09-12T13:19:56;27.40;99.90
21115;DHT22;10715;48.546;9.896;2023-09-12T13:22:21;27.40;99.90
21115;DHT22;10715;48.546;9.896;2023-09-12T13:24:47;27.40;99.90
21115;DHT22;10715;48.546;9.896;2023-09-12T13:27:13;27.30;99.90
21115;DHT22;10715;48.546;9.896;2023-09-12T13:29:39;27.30;99.90
21115;DHT22;10715;48.546;9.896;2023-09-12T13:32:05;27.30;99.90
21115;DHT22;10715;48.546;9.896;2023-09-12T13:34:31;27.30;99.90
21115;DHT22;10715;48.546;9.896;2023-09-12T13:36:56;27.30;99.90
21115;DHT22;10715;48.546;9.896;2023-09-12T13:39:24;27.20;99.90
21115;DHT22;10715;48.546;9.896;2023-09-12T13:41:49;27.20;99.90
21115;DHT22;10715;48.546;9.896;2023-09-12T13:44:17;27.10;99.90
21115;DHT22;10715;48.546;9.896;2023-09-12T13:46:43;27.10;99.90
21115;DHT22;10715;48.546;9.896;2023-09-12T13:49:11;27.10;99.90
21115;DHT22;10715;48.546;9.896;2023-09-12T13:51:37;27.10;99.90
21115;DHT22;10715;48.546;9.896;2023-09-12T13:54:03;27.10;99.90
21115;DHT22;10715;48.546;9.896;2023-09-12T13:56:29;27.00;99.90
21115;DHT22;10715;48.546;9.896;2023-09-12T13:58:55;27.00;99.90
21115;DHT22;10715;48.546;9.896;2023-09-12T14:01:21;27.00;99.90
21115;DHT22;10715;48.546;9.896;2023-09-12T14:03:48;27.00;99.90
21115;DHT22;10715;48.546;9.896;2023-09-12T14:06:14;26.90;99.90
21115;DHT22;10715;48.546;9.896;2023-09-12T14:08:39;26.90;99.90
21115;DHT22;10715;48.546;9.896;2023-09-12T14:11:05;26.90;99.90
21115;DHT22;10715;48.546;9.896;2023-09-12T14:13:31;26.90;99.90
21115;DHT22;10715;48.546;9.896;2023-09-12T14:15:56;26.90;99.90
21115;DHT22;10715;48.546;9.896;2023-09-12T14:18:22;26.90;99.90
21115;DHT22;10715;48.546;9.896;2023-09-12T14:20:48;26.80;99.90
21115;DHT22;10715;48.546;9.896;2023-09-12T14:23:15;26.80;99.90
21115;DHT22;10715;48.546;9.896;2023-09-12T14:25:41;26.80;99.90
21115;DHT22;10715;48.546;9.896;2023-09-12T14:28:07;26.80;99.90
21115;DHT22;10715;48.546;9.896;2023-09-12T14:30:33;26.80;99.90
21115;DHT22;10715;48.546;9.896;2023-09-12T14:33:02;26.80;99.90
21115;DHT22;10715;48.546;9.896;2023-09-12T14:35:28;26.80;99.90
21115;DHT22;10715;48.546;9.896;2023-09-12T14:37:53;26.80;99.90
21115;DHT22;10715;48.546;9.896;2023-09-12T14:40:19;26.80;99.90
21115;DHT22;10715;48.546;9.896;2023-09-12T14:42:45;26.80;99.90
21115;DHT22;10715;48.546;9.896;2023-09-12T14:45:10;26.80;99.90
21115;DHT22;10715;48.546;9.896;2023-09-12T14:47:36;26.80;99.90
21115;DHT22;10715;48.546;9.896;2023-09-12T14:50:03;26.80;99.90
21115;DHT22;10715;48.546;9.896;2023-09-12T14:52:28;26.70;99.90
21115;DHT22;10715;48.546;9.896;2023-09-12T14:54:55;26.70;99.90
21115;DHT22;10715;48.546;9.896;2023-09-12T14:57:23;26.70;99.90
21115;DHT22;10715;48.546;9.896;2023-09-12T14:59:50;26.70;99.90
21115;DHT22;10715;48.546;9.896;2023-09-12T15:02:16;26.60;99.90
21115;DHT22;10715;48.546;9.896;2023-09-12T15:04:41;26.50;99.90
21115;DHT22;10715;48.546;9.896;2023-09-12T15:07:07;26.40;99.90
21115;DHT22;10715;48.546;9.896;2023-09-12T15:09:33;26.40;99.90
21115;DHT22;10715;48.546;9.896;2023-09-12T15:11:59;26.30;99.90
21115;DHT22;10715;48.546;9.896;2023-09-12T15:14:25;26.30;99.90
21115;DHT22;10715;48.546;9.896;2023-09-12T15:16:51;26.20;99.90
21115;DHT22;10715;48.546;9.896;2023-09-12T15:19:17;26.20;99.90
21115;DHT22;10715;48.546;9.896;2023-09-12T15:21:43;26.10;99.90
21115;DHT22;10715;48.546;9.896;2023-09-12T15:24:08;26.10;99.90
21115;DHT22;10715;48.546;9.896;2023-09-12T15:26:34;26.00;99.90
21115;DHT22;10715;48.546;9.896;2023-09-12T15:29:00;25.90;99.90
21115;DHT22;10715;48.546;9.896;2023-09-12T15:31:27;25.90;99.90
21115;DHT22;10715;48.546;9.896;2023-09-12T15:33:53;25.80;99.90
21115;DHT22;10715;48.546;9.896;2023-09-12T15:36:20;25.70;99.90
21115;DHT22;10715;48.546;9.896;2023-09-12T15:38:46;25.70;99.90
21115;DHT22;10715;48.546;9.896;2023-09-12T15:41:11;25.60;99.90
21115;DHT22;10715;48.546;9.896;2023-09-12T15:43:38;25.50;99.90
21115;DHT22;10715;48.546;9.896;2023-09-12T15:46:04;25.50;99.90